Nearby METAR Reports

 

EDLW - Dortmund/Wickede, Germany
Distance from station: OSO 17km
Aktuell: 30/03/2020 13:50
stark bewölkt
stark bewölkt
 Wind aus WNW
Wind: WNW 15 km/h
Temperatur: 5°C
Wind Chill: 2°C
Taupunkt: -4°C
Luftfeuchte: 53%
Luftdruck: 1028 hPa
Clouds: stark bewölkt
Visibility: 10 km
Cloud details: stark bewölkt 1250 m
stark bewölkt 1463 m
2020/03/30 11:50 EDLW 301150Z 29008KT 250V320 9999 BKN041 BKN048 05/M04 Q1028
EDDL - Duesseldorf, Germany
Distance from station: SW 52km
Aktuell: 30/03/2020 13:50
stark bewölkt
stark bewölkt
 Wind aus NW
Wind: NW 15 km/h
Temperatur: 7°C
Wind Chill: 4°C
Taupunkt: -4°C
Luftfeuchte: 46%
Luftdruck: 1029 hPa
Clouds: stark bewölkt
Visibility: 10 km
Cloud details: leicht bewölkt 1128 m
stark bewölkt 1433 m
2020/03/30 11:50 EDDL 301150Z 32008KT 9999 FEW037 BKN047 07/M04 Q1029 NOSIG
 
EDDG - Muenster/Osnabru, Germany
Distance from station: NNO 67km
Aktuell: 30/03/2020 13:50
stark bewölkt
stark bewölkt
 Wind aus W
Wind: W 20 km/h
Temperatur: 5°C
Wind Chill: 1°C
Taupunkt: 1°C
Luftfeuchte: 76%
Luftdruck: 1028 hPa
Clouds: stark bewölkt
Visibility: 10 km
Cloud details: stark bewölkt 640 m
2020/03/30 11:50 EDDG 301150Z 27011KT 9999 BKN021 05/01 Q1028 NOSIG
EDLN - Monchengladbach, Germany
Distance from station: WSW 72km
Aktuell: 30/03/2020 13:50
klar
klar
 Wind aus NW
Wind: NW 15 km/h
Temperatur: 6°C
Wind Chill: 3°C
Taupunkt: -4°C
Luftfeuchte: 49%
Luftdruck: 1030 hPa
Zusammenfassung: klar
Visibility: greater than 10 km
2020/03/30 11:50 EDLN 301150Z 32008KT 290V350 CAVOK 06/M04 Q1030
 
EDDK - Koeln/Bonn, Germany
Distance from station: SSW 79km
Aktuell: 30/03/2020 13:50
klar
klar
 Wind aus WNW
Wind: WNW 15 km/h
Temperatur: 7°C
Wind Chill: 4°C
Taupunkt: -7°C
Luftfeuchte: 37%
Luftdruck: 1028 hPa
Zusammenfassung: klar
Visibility: greater than 10 km
2020/03/30 11:50 EDDK 301150Z 30008KT 220V330 CAVOK 07/M07 Q1028 NOSIG
EDLP - Paderborn/Lippst, Germany
Distance from station: O 85km
Aktuell: 30/03/2020 13:50
geschlossene Wolkendecke
geschlossene Wolkendecke
 Wind aus W
Wind: W 13 km/h
Temperatur: 3°C
Wind Chill: -1°C
Taupunkt: -6°C
Luftfeuchte: 52%
Luftdruck: 1028 hPa
Clouds: geschlossene Wolkendecke
Visibility: 10 km
Cloud details: geschlossene Wolkendecke 1250 m
2020/03/30 11:50 EDLP 301150Z 26007KT 220V310 9999 OVC041 03/M06 Q1028
 
EDLV - Niederrhein, Germany
Distance from station: W 86km
Aktuell: 29/03/2020 12:50
NOT Current
stark bewölkt
stark bewölkt
 Wind aus NNO
Wind: NNO 22 km/h
Temperatur: 5°C
Wind Chill: 1°C
Taupunkt: -1°C
Luftfeuchte: 66%
Luftdruck: 1029 hPa
Clouds: stark bewölkt
Visibility: 10 km
Cloud details: stark bewölkt 1097 m
2020/03/29 10:50 EDLV 291050Z 03012KT 360V070 9999 BKN036 05/M01 Q1029
ETNN - Noervenich (gaf), Germany
Distance from station: SSW 97km
Aktuell: 30/03/2020 13:20
teilweise bewölkt
teilweise bewölkt
 Wind aus NW
Wind: NW 11 km/h
Temperatur: 5°C
Wind Chill: 2°C
Taupunkt: -7°C
Luftfeuchte: 42%
Luftdruck: 1029 hPa
Clouds: teilweise bewölkt
Visibility: 10 km
Cloud details: teilweise bewölkt 2438 m
2020/03/30 11:20 ETNN 301120Z 31006KT 9999 SCT080 05/M07 Q1029 BLU+BLU+